createdAt,value
2023-05-20T00:00:02.030Z,100229.19
2023-05-20T00:01:34.133Z,100221.41
2023-05-20T00:03:06.429Z,100215.47
2023-05-20T00:04:38.700Z,100225.91
2023-05-20T00:06:10.959Z,100226.84
2023-05-20T00:07:43.330Z,100228.63
2023-05-20T00:09:15.606Z,100224.38
2023-05-20T00:10:47.888Z,100227.06
2023-05-20T00:12:19.973Z,100222.00
2023-05-20T00:13:52.180Z,100223.75
2023-05-20T00:15:24.241Z,100222.97
2023-05-20T00:16:56.386Z,100227.34
2023-05-20T00:18:28.604Z,100224.81
2023-05-20T00:20:00.931Z,100230.03
2023-05-20T00:21:34.234Z,100224.00
2023-05-20T00:24:38.066Z,100218.00
2023-05-20T00:26:11.223Z,100219.81
2023-05-20T00:27:43.348Z,100223.34
2023-05-20T00:29:15.413Z,100213.94
2023-05-20T00:30:47.611Z,100211.44
2023-05-20T00:32:19.810Z,100204.50
2023-05-20T00:33:51.938Z,100199.31
2023-05-20T00:35:24.203Z,100198.44
2023-05-20T00:36:56.609Z,100200.22
2023-05-20T00:38:28.819Z,100191.72
2023-05-20T00:40:01.038Z,100194.25
2023-05-20T00:41:33.514Z,100190.00
2023-05-20T00:43:05.783Z,100189.16
2023-05-20T00:44:37.937Z,100183.94
2023-05-20T00:46:10.971Z,100191.72
2023-05-20T00:47:44.003Z,100187.50
2023-05-20T00:49:16.554Z,100192.75
2023-05-20T00:50:49.800Z,100191.88
2023-05-20T00:52:22.010Z,100191.06
2023-05-20T00:53:54.694Z,100189.34
2023-05-20T00:55:26.823Z,100194.63
2023-05-20T00:56:59.882Z,100194.69
2023-05-20T00:58:32.820Z,100200.78
2023-05-20T01:00:06.353Z,100199.94
2023-05-20T01:01:38.337Z,100192.94
2023-05-20T01:03:10.505Z,100196.44
2023-05-20T01:04:47.034Z,100199.06
2023-05-20T01:06:19.067Z,100197.41
2023-05-20T01:07:51.574Z,100197.47
2023-05-20T01:09:24.697Z,100188.78
2023-05-20T01:11:05.556Z,100196.53
2023-05-20T01:12:49.871Z,100193.97
2023-05-20T01:14:23.014Z,100198.41
2023-05-20T01:15:56.783Z,100200.09
2023-05-20T01:17:31.637Z,100200.09
2023-05-20T01:19:04.511Z,100201.09
2023-05-20T01:20:37.576Z,100205.41
2023-05-20T01:22:12.939Z,100205.50
2023-05-20T01:23:45.185Z,100207.22
2023-05-20T01:25:17.309Z,100207.22
2023-05-20T01:28:30.716Z,100210.59
2023-05-20T01:30:03.033Z,100216.75
2023-05-20T01:31:37.895Z,100210.66
2023-05-20T01:33:11.820Z,100212.34
2023-05-20T01:34:45.752Z,100211.50
2023-05-20T01:36:19.210Z,100216.63
2023-05-20T01:37:51.376Z,100215.69
2023-05-20T01:39:25.501Z,100214.91
2023-05-20T01:40:58.512Z,100208.91
2023-05-20T01:42:30.795Z,100220.22
2023-05-20T01:44:03.029Z,100212.41
2023-05-20T01:45:35.438Z,100217.59
2023-05-20T01:47:07.906Z,100221.03
2023-05-20T01:48:40.087Z,100216.75
2023-05-20T01:50:12.268Z,100213.31
2023-05-20T01:51:44.377Z,100215.94
2023-05-20T01:53:16.501Z,100214.28
2023-05-20T01:54:51.546Z,100218.66
2023-05-20T01:58:00.199Z,100212.72
2023-05-20T01:59:32.401Z,100223.13
2023-05-20T02:01:04.645Z,100221.47
2023-05-20T02:02:37.159Z,100231.84
2023-05-20T02:04:09.598Z,100218.94
2023-05-20T02:05:42.173Z,100219.00
2023-05-20T02:07:15.629Z,100211.22
2023-05-20T02:08:47.748Z,100214.69
2023-05-20T02:10:20.039Z,100209.56
2023-05-20T02:11:52.216Z,100211.25
2023-05-20T02:13:24.367Z,100206.13
2023-05-20T02:14:56.580Z,100204.47
2023-05-20T02:16:28.698Z,100203.66
2023-05-20T02:18:00.978Z,100200.22
2023-05-20T02:19:33.214Z,100200.28
2023-05-20T02:21:06.007Z,100200.25
2023-05-20T02:22:38.309Z,100192.53
2023-05-20T02:24:10.579Z,100193.31
2023-05-20T02:25:42.819Z,100182.97
2023-05-20T02:27:15.075Z,100190.75
2023-05-20T02:28:51.265Z,100188.19
2023-05-20T02:30:23.375Z,100197.75
2023-05-20T02:31:55.509Z,100201.25
2023-05-20T02:33:29.443Z,100205.66
2023-05-20T02:35:01.595Z,100205.69
2023-05-20T02:36:33.671Z,100208.31
2023-05-20T02:38:06.049Z,100198.81
2023-05-20T02:39:38.296Z,100192.72
2023-05-20T02:41:10.449Z,100189.28
2023-05-20T02:42:42.584Z,100184.03
2023-05-20T02:44:15.150Z,100190.09
2023-05-20T02:45:47.932Z,100198.66
2023-05-20T02:47:20.084Z,100196.13
2023-05-20T02:48:52.622Z,100203.06
2023-05-20T02:50:24.734Z,100203.91
2023-05-20T02:51:57.435Z,100203.91
2023-05-20T02:53:29.560Z,100207.41
2023-05-20T02:55:01.676Z,100213.47
2023-05-20T02:56:34.726Z,100213.50
2023-05-20T02:58:06.890Z,100200.56
2023-05-20T02:59:39.049Z,100210.03
2023-05-20T03:02:43.155Z,100209.09
2023-05-20T03:04:15.535Z,100208.25
2023-05-20T03:05:47.807Z,100219.44
2023-05-20T03:07:22.150Z,100224.72
2023-05-20T03:08:54.294Z,100225.59
2023-05-20T03:10:26.516Z,100224.72
2023-05-20T03:11:58.699Z,100223.06
2023-05-20T03:13:30.926Z,100218.72
2023-05-20T03:15:04.233Z,100215.28
2023-05-20T03:16:36.473Z,100218.69
2023-05-20T03:18:11.502Z,100223.06
2023-05-20T03:19:43.630Z,100229.97
2023-05-20T03:21:15.888Z,100236.03
2023-05-20T03:22:48.058Z,100227.41
2023-05-20T03:24:20.164Z,100242.09
2023-05-20T03:25:52.563Z,100240.44
2023-05-20T03:27:27.012Z,100238.69
2023-05-20T03:29:01.775Z,100237.00
2023-05-20T03:30:33.920Z,100235.25
2023-05-20T03:32:08.703Z,100240.44
2023-05-20T03:33:42.336Z,100237.84
2023-05-20T03:35:14.531Z,100234.34
2023-05-20T03:36:46.719Z,100240.38
2023-05-20T03:38:18.889Z,100234.34
2023-05-20T03:39:51.239Z,100238.69
2023-05-20T03:41:23.609Z,100239.53
2023-05-20T03:42:56.039Z,100236.03
2023-05-20T03:44:28.293Z,100232.56
2023-05-20T03:46:00.572Z,100241.19
2023-05-20T03:47:32.800Z,100237.66
2023-05-20T03:49:06.048Z,100237.69
2023-05-20T03:50:38.250Z,100231.66
2023-05-20T03:52:10.316Z,100235.13
2023-05-20T03:53:42.455Z,100235.13
2023-05-20T03:55:15.543Z,100235.09
2023-05-20T03:56:49.692Z,100235.94
2023-05-20T03:58:22.703Z,100234.25
2023-05-20T03:59:54.938Z,100234.19
2023-05-20T04:01:27.176Z,100232.44
2023-05-20T04:02:59.682Z,100230.59
2023-05-20T04:04:32.001Z,100234.03
2023-05-20T04:06:04.236Z,100233.09
2023-05-20T04:07:36.857Z,100233.84
2023-05-20T04:09:09.055Z,100228.63
2023-05-20T04:10:44.416Z,100236.25
2023-05-20T04:12:16.637Z,100239.69
2023-05-20T04:13:48.788Z,100233.56
2023-05-20T04:15:21.036Z,100234.31
2023-05-20T04:16:53.141Z,100229.91
2023-05-20T04:18:25.305Z,100230.66
2023-05-20T04:20:00.394Z,100227.88
2023-05-20T04:21:32.584Z,100220.00
2023-05-20T04:23:04.808Z,100219.00
2023-05-20T04:24:38.522Z,100218.03
2023-05-20T04:26:10.667Z,100217.94
2023-05-20T04:27:44.103Z,100219.44
2023-05-20T04:29:16.519Z,100212.25
2023-05-20T04:30:48.711Z,100213.09
2023-05-20T04:32:21.201Z,100212.03
2023-05-20T04:33:56.241Z,100207.47
2023-05-20T04:35:28.588Z,100206.44
2023-05-20T04:37:00.852Z,100202.84
2023-05-20T04:38:33.040Z,100196.56
2023-05-20T04:40:07.178Z,100198.97
2023-05-20T04:41:40.374Z,100205.69
2023-05-20T04:43:12.547Z,100208.09
2023-05-20T04:44:46.526Z,100207.84
2023-05-20T04:46:19.136Z,100211.91
2023-05-20T04:47:53.803Z,100207.31
2023-05-20T04:49:32.291Z,100202.75
2023-05-20T04:51:04.712Z,100202.44
2023-05-20T04:52:38.386Z,100207.34
2023-05-20T04:54:10.600Z,100213.28
2023-05-20T04:55:43.805Z,100215.69
2023-05-20T04:57:15.895Z,100217.22
2023-05-20T04:58:48.019Z,100220.38
2023-05-20T05:00:20.148Z,100216.66
2023-05-20T05:01:52.392Z,100219.06
2023-05-20T05:03:24.709Z,100216.31
2023-05-20T05:04:56.991Z,100224.66
2023-05-20T05:06:29.283Z,100219.22
2023-05-20T05:08:01.591Z,100227.66
2023-05-20T05:11:07.331Z,100228.94
2023-05-20T05:12:39.572Z,100234.81
2023-05-20T05:14:11.719Z,100225.97
2023-05-20T05:15:43.913Z,100225.72
2023-05-20T05:17:16.065Z,100228.09
2023-05-20T05:18:48.318Z,100231.41
2023-05-20T05:20:20.927Z,100232.09
2023-05-20T05:21:53.160Z,100224.16
2023-05-20T05:23:25.440Z,100226.59
2023-05-20T05:24:59.432Z,100227.25
2023-05-20T05:26:31.572Z,100226.25
2023-05-20T05:28:03.795Z,100225.25
2023-05-20T05:29:35.973Z,100228.63
2023-05-20T05:31:08.685Z,100231.09
2023-05-20T05:32:40.992Z,100228.31
2023-05-20T05:34:13.312Z,100242.94
2023-05-20T05:35:45.531Z,100245.47
2023-05-20T05:37:17.691Z,100248.81
2023-05-20T05:38:58.736Z,100245.28
2023-05-20T05:40:30.931Z,100243.47
2023-05-20T05:42:03.042Z,100246.81
2023-05-20T05:43:35.741Z,100244.25
2023-05-20T05:45:08.576Z,100252.66
2023-05-20T05:46:40.759Z,100243.91
2023-05-20T05:48:13.017Z,100247.25
2023-05-20T05:49:45.355Z,100248.84
2023-05-20T05:51:17.737Z,100247.00
2023-05-20T05:52:49.905Z,100249.41
2023-05-20T05:54:22.030Z,100244.94
2023-05-20T05:55:54.294Z,100239.50
2023-05-20T05:57:26.487Z,100238.47
2023-05-20T05:58:58.900Z,100236.53
2023-05-20T06:00:31.163Z,100236.34
2023-05-20T06:02:03.528Z,100226.59
2023-05-20T06:03:36.086Z,100222.06
2023-05-20T06:05:09.470Z,100227.81
2023-05-20T06:06:42.129Z,100220.59
2023-05-20T06:08:14.292Z,100229.91
2023-05-20T06:09:46.842Z,100229.69
2023-05-20T06:11:19.484Z,100219.00
2023-05-20T06:12:51.621Z,100219.69
2023-05-20T06:14:23.733Z,100215.94
2023-05-20T06:15:55.934Z,100217.47
2023-05-20T06:17:28.156Z,100222.41
2023-05-20T06:19:03.345Z,100222.94
2023-05-20T06:20:36.232Z,100222.69
2023-05-20T06:22:08.349Z,100217.16
2023-05-20T06:23:40.633Z,100213.47
2023-05-20T06:25:13.479Z,100215.78
2023-05-20T06:26:46.536Z,100214.66
2023-05-20T06:28:19.157Z,100213.56
2023-05-20T06:29:51.285Z,100221.31
2023-05-20T06:31:23.516Z,100217.75
2023-05-20T06:32:55.811Z,100221.00
2023-05-20T06:34:27.958Z,100223.44
2023-05-20T06:36:02.156Z,100216.38
2023-05-20T06:37:34.792Z,100225.56
2023-05-20T06:39:12.662Z,100226.28
2023-05-20T06:40:44.838Z,100225.09
2023-05-20T06:42:16.988Z,100222.22
2023-05-20T06:43:50.533Z,100224.59
2023-05-20T06:45:24.043Z,100217.25
2023-05-20T06:46:56.377Z,100218.75
2023-05-20T06:48:28.567Z,100214.94
2023-05-20T06:50:00.718Z,100209.53
2023-05-20T06:51:32.826Z,100207.69
2023-05-20T06:53:05.075Z,100205.75
2023-05-20T06:54:41.920Z,100212.38
2023-05-20T06:56:14.076Z,100207.91
2023-05-20T06:57:46.263Z,100201.75
2023-05-20T06:59:18.644Z,100203.16
2023-05-20T07:00:50.888Z,100197.69
2023-05-20T07:02:23.542Z,100201.06
2023-05-20T07:03:55.766Z,100207.03
2023-05-20T07:05:29.408Z,100202.47
2023-05-20T07:07:01.648Z,100206.53
2023-05-20T07:08:33.853Z,100201.09
2023-05-20T07:10:06.955Z,100200.13
2023-05-20T07:11:39.057Z,100206.91
2023-05-20T07:13:11.210Z,100201.50
2023-05-20T07:14:43.545Z,100207.41
2023-05-20T07:16:15.729Z,100200.31
2023-05-20T07:17:47.892Z,100203.72
2023-05-20T07:19:20.110Z,100202.66
2023-05-20T07:20:53.258Z,100205.00
2023-05-20T07:22:25.421Z,100207.47
2023-05-20T07:23:57.548Z,100195.88
2023-05-20T07:25:29.707Z,100200.06
2023-05-20T07:27:01.903Z,100190.06
2023-05-20T07:28:35.016Z,100185.50
2023-05-20T07:30:07.796Z,100193.09
2023-05-20T07:31:40.047Z,100188.38
2023-05-20T07:33:12.514Z,100189.81
2023-05-20T07:34:44.670Z,100190.66
2023-05-20T07:36:17.114Z,100185.97
2023-05-20T07:37:49.200Z,100187.50
2023-05-20T07:39:21.499Z,100184.56
2023-05-20T07:40:53.607Z,100177.91
2023-05-20T07:42:25.728Z,100180.22
2023-05-20T07:43:57.881Z,100190.41
2023-05-20T07:45:30.057Z,100186.63
2023-05-20T07:47:02.297Z,100186.88
2023-05-20T07:48:34.359Z,100186.56
2023-05-20T07:50:06.964Z,100188.94
2023-05-20T07:51:39.132Z,100182.69
2023-05-20T07:53:11.716Z,100182.59
2023-05-20T07:54:43.860Z,100177.88
2023-05-20T07:56:16.923Z,100178.25
2023-05-20T07:57:49.063Z,100177.09
2023-05-20T07:59:21.860Z,100187.59
2023-05-20T08:00:53.960Z,100181.16
2023-05-20T08:02:26.809Z,100180.06
2023-05-20T08:03:59.130Z,100181.00
2023-05-20T08:05:31.388Z,100186.94
2023-05-20T08:07:03.667Z,100187.09
2023-05-20T08:08:36.706Z,100191.22
2023-05-20T08:10:09.560Z,100187.06
2023-05-20T08:11:41.671Z,100187.84
2023-05-20T08:13:13.896Z,100188.72
2023-05-20T08:14:46.349Z,100179.78
2023-05-20T08:16:18.744Z,100184.09
2023-05-20T08:17:50.986Z,100173.44
2023-05-20T08:19:23.119Z,100166.63
2023-05-20T08:20:55.280Z,100170.13
2023-05-20T08:22:30.034Z,100166.63
2023-05-20T08:24:02.344Z,100166.06
2023-05-20T08:25:34.670Z,100163.09
2023-05-20T08:27:09.148Z,100168.16
2023-05-20T08:28:41.313Z,100168.41
2023-05-20T08:30:14.135Z,100167.50
2023-05-20T08:31:46.292Z,100165.63
2023-05-20T08:33:19.813Z,100168.00
2023-05-20T08:34:51.916Z,100171.22
2023-05-20T08:36:24.222Z,100167.81
2023-05-20T08:37:56.389Z,100164.78
2023-05-20T08:39:28.515Z,100158.66
2023-05-20T08:41:03.068Z,100154.44
2023-05-20T08:42:36.288Z,100163.94
2023-05-20T08:44:08.855Z,100160.47
2023-05-20T08:45:41.127Z,100163.75
2023-05-20T08:47:13.247Z,100167.81
2023-05-20T08:48:45.930Z,100163.91
2023-05-20T08:50:18.157Z,100170.88
2023-05-20T08:51:50.324Z,100160.34
2023-05-20T08:53:23.259Z,100165.25
2023-05-20T08:54:55.698Z,100162.00
2023-05-20T08:56:30.151Z,100167.38
2023-05-20T08:58:04.095Z,100169.38
2023-05-20T08:59:36.665Z,100174.13
2023-05-20T09:01:08.851Z,100167.06
2023-05-20T09:02:41.054Z,100170.38
2023-05-20T09:04:13.214Z,100165.09
2023-05-20T09:05:45.418Z,100169.78
2023-05-20T09:07:28.507Z,100173.38
2023-05-20T09:09:04.239Z,100171.50
2023-05-20T09:10:37.558Z,100174.69
2023-05-20T09:12:09.757Z,100170.19
2023-05-20T09:13:41.910Z,100162.84
2023-05-20T09:15:14.034Z,100165.47
2023-05-20T09:16:46.402Z,100165.94
2023-05-20T09:18:18.679Z,100159.44
2023-05-20T09:19:54.239Z,100159.78
2023-05-20T09:21:29.890Z,100161.88
2023-05-20T09:23:03.371Z,100155.47
2023-05-20T09:24:35.642Z,100156.91
2023-05-20T09:26:08.070Z,100151.16
2023-05-20T09:27:40.683Z,100157.06
2023-05-20T09:29:12.770Z,100156.56
2023-05-20T09:30:46.133Z,100156.81
2023-05-20T09:32:26.821Z,100152.59
2023-05-20T09:33:58.982Z,100158.78
2023-05-20T09:35:31.586Z,100147.94
2023-05-20T09:37:04.234Z,100153.22
2023-05-20T09:38:40.241Z,100149.81
2023-05-20T09:40:13.040Z,100143.31
2023-05-20T09:41:57.095Z,100143.31
2023-05-20T09:43:29.375Z,100137.81
2023-05-20T09:45:04.658Z,100143.66
2023-05-20T09:46:37.455Z,100147.91
2023-05-20T09:48:11.622Z,100136.09
2023-05-20T09:49:44.490Z,100136.69
2023-05-20T09:51:17.148Z,100133.84
2023-05-20T09:52:50.600Z,100128.94
2023-05-20T09:54:23.248Z,100134.25
2023-05-20T09:55:56.501Z,100133.41
2023-05-20T09:57:28.580Z,100139.00
2023-05-20T10:15:11.712Z,100127.81
2023-05-20T10:17:16.696Z,100126.09
2023-05-20T10:19:12.783Z,100124.78
2023-05-20T10:20:49.044Z,100122.78
2023-05-20T10:22:32.164Z,100121.28
2023-05-20T10:24:08.697Z,100126.28
2023-05-20T10:25:54.635Z,100120.16
2023-05-20T10:27:26.853Z,100120.53
2023-05-20T10:28:59.038Z,100121.41
2023-05-20T10:30:31.426Z,100117.06
2023-05-20T10:32:04.508Z,100115.38
2023-05-20T10:33:43.444Z,100110.72
2023-05-20T10:35:22.479Z,100108.47
2023-05-20T10:36:54.576Z,100109.09
2023-05-20T10:38:26.808Z,100109.84
2023-05-20T10:40:25.964Z,100101.75
2023-05-20T10:42:12.429Z,100101.81
2023-05-20T10:43:45.289Z,100105.59
2023-05-20T10:45:28.207Z,100100.69
2023-05-20T10:47:23.737Z,100100.47
2023-05-20T10:48:56.852Z,100093.59
2023-05-20T10:50:39.148Z,100100.00
2023-05-20T10:52:11.409Z,100089.03
2023-05-20T10:53:46.706Z,100087.81
2023-05-20T10:55:23.166Z,100087.81
2023-05-20T10:56:55.781Z,100090.28
2023-05-20T10:58:27.924Z,100085.44
2023-05-20T11:00:01.553Z,100075.47
2023-05-20T11:01:33.813Z,100083.72
2023-05-20T11:03:07.003Z,100074.53
2023-05-20T11:04:40.049Z,100080.28
2023-05-20T11:06:18.690Z,100078.06
2023-05-20T11:07:51.623Z,100080.63
2023-05-20T11:09:24.054Z,100083.69
2023-05-20T11:10:57.614Z,100072.81
2023-05-20T11:12:29.784Z,100072.91
2023-05-20T11:14:01.925Z,100079.97
2023-05-20T11:15:35.928Z,100075.34
2023-05-20T11:17:08.656Z,100076.09
2023-05-20T11:18:40.936Z,100077.34
2023-05-20T11:20:15.632Z,100075.66
2023-05-20T11:21:48.516Z,100075.13
2023-05-20T11:23:20.638Z,100066.53
2023-05-20T11:24:52.828Z,100071.19
2023-05-20T11:26:25.168Z,100067.91
2023-05-20T11:27:57.497Z,100071.78
2023-05-20T11:29:32.701Z,100059.44
2023-05-20T11:31:05.261Z,100058.69
2023-05-20T11:32:37.622Z,100046.44
2023-05-20T11:34:09.904Z,100049.09
2023-05-20T11:35:52.548Z,100044.56
2023-05-20T11:37:25.114Z,100039.28
2023-05-20T11:39:00.780Z,100043.72
2023-05-20T11:40:42.715Z,100044.75
2023-05-20T11:42:22.412Z,100044.31
2023-05-20T11:43:59.626Z,100034.63
2023-05-20T11:45:42.601Z,100039.28
2023-05-20T11:47:14.907Z,100029.97
2023-05-20T11:48:57.291Z,100033.25
2023-05-20T11:50:29.853Z,100034.56
2023-05-20T11:52:03.913Z,100031.19
2023-05-20T11:53:36.090Z,100031.06
2023-05-20T11:56:56.352Z,100018.16
2023-05-20T11:58:32.449Z,100011.09
2023-05-20T12:00:07.853Z,100015.66
2023-05-20T12:01:43.848Z,100012.25
2023-05-20T12:03:16.958Z,100013.97
2023-05-20T12:04:49.455Z,100010.69
2023-05-20T12:06:22.162Z,100003.81
2023-05-20T12:07:56.049Z,99997.97
2023-05-20T12:09:28.738Z,100000.63
2023-05-20T12:11:01.015Z,99994.16
2023-05-20T12:12:33.240Z,99986.13
2023-05-20T12:14:05.424Z,99994.72
2023-05-20T12:15:38.134Z,99991.19
2023-05-20T12:17:10.387Z,99982.97
2023-05-20T12:18:42.733Z,99981.19
2023-05-20T12:20:17.323Z,99985.94
2023-05-20T12:21:49.465Z,99985.84
2023-05-20T12:23:22.179Z,99982.97
2023-05-20T12:24:55.291Z,99983.09
2023-05-20T12:26:29.373Z,99986.59
2023-05-20T12:28:02.900Z,99969.47
2023-05-20T12:29:35.115Z,99970.53
2023-05-20T12:31:07.297Z,99978.22
2023-05-20T12:32:39.640Z,99972.31
2023-05-20T12:34:11.787Z,99971.03
2023-05-20T12:35:44.915Z,99970.72
2023-05-20T12:37:17.176Z,99970.31
2023-05-20T12:38:49.472Z,99962.38
2023-05-20T12:40:21.714Z,99963.13
2023-05-20T12:41:53.824Z,99962.16
2023-05-20T12:43:25.953Z,99962.38
2023-05-20T12:44:58.090Z,99959.94
2023-05-20T12:46:30.290Z,99953.81
2023-05-20T12:48:02.910Z,99956.66
2023-05-20T12:49:35.178Z,99957.94
2023-05-20T12:51:07.310Z,99945.69
2023-05-20T12:52:39.586Z,99952.88
2023-05-20T12:54:11.746Z,99940.72
2023-05-20T12:55:44.032Z,99945.50
2023-05-20T12:57:16.936Z,99943.78
2023-05-20T12:58:49.369Z,99943.88
2023-05-20T13:00:21.616Z,99932.38
2023-05-20T13:01:53.813Z,99932.28
2023-05-20T13:03:26.097Z,99932.38
2023-05-20T13:04:58.273Z,99934.72
2023-05-20T13:06:30.765Z,99934.06
2023-05-20T13:08:02.972Z,99935.31
2023-05-20T13:09:35.176Z,99943.56
2023-05-20T13:12:46.441Z,99940.50
2023-05-20T13:14:18.728Z,99936.47
2023-05-20T13:15:51.649Z,99934.28
2023-05-20T13:17:23.875Z,99930.03
2023-05-20T13:18:56.114Z,99934.72
2023-05-20T13:20:28.251Z,99930.59
2023-05-20T13:22:00.586Z,99933.00
2023-05-20T13:23:32.725Z,99931.09
2023-05-20T13:25:05.901Z,99922.88
2023-05-20T13:26:38.605Z,99923.91
2023-05-20T13:28:11.215Z,99918.00
2023-05-20T13:29:44.021Z,99920.31
2023-05-20T13:31:16.430Z,99912.06
2023-05-20T13:32:48.864Z,99909.84
2023-05-20T13:34:21.206Z,99913.94
2023-05-20T13:35:53.331Z,99910.03
2023-05-20T13:37:25.666Z,99907.19
2023-05-20T13:38:57.827Z,99910.56
2023-05-20T13:40:29.974Z,99908.53
2023-05-20T13:42:02.175Z,99914.56
2023-05-20T13:43:34.699Z,99901.47
2023-05-20T13:45:07.430Z,99902.63
2023-05-20T13:46:39.731Z,99906.84
2023-05-20T13:48:11.941Z,99898.69
2023-05-20T13:49:44.130Z,99894.94
2023-05-20T13:51:16.415Z,99890.00
2023-05-20T13:52:48.612Z,99891.03
2023-05-20T13:54:22.039Z,99890.72
2023-05-20T13:55:54.224Z,99881.94
2023-05-20T13:57:26.583Z,99888.41
2023-05-20T13:58:58.938Z,99881.50
2023-05-20T14:00:31.080Z,99884.66
2023-05-20T14:02:03.438Z,99878.78
2023-05-20T14:03:37.721Z,99872.66
2023-05-20T14:05:10.228Z,99874.34
2023-05-20T14:06:42.616Z,99878.19
2023-05-20T14:08:14.813Z,99877.72
2023-05-20T14:09:47.064Z,99874.94
2023-05-20T14:11:19.269Z,99873.91
2023-05-20T14:12:53.079Z,99871.03
2023-05-20T14:14:25.191Z,99866.81
2023-05-20T14:15:57.504Z,99868.09
2023-05-20T14:17:29.793Z,99861.63
2023-05-20T14:19:02.010Z,99866.44
2023-05-20T14:20:34.451Z,99862.34
2023-05-20T14:22:06.821Z,99868.47
2023-05-20T14:23:41.505Z,99867.38
2023-05-20T14:25:13.761Z,99854.22
2023-05-20T14:26:45.885Z,99856.06
2023-05-20T14:28:18.061Z,99853.31
2023-05-20T14:29:50.192Z,99848.75
2023-05-20T14:31:22.522Z,99857.66
2023-05-20T14:32:54.889Z,99859.94
2023-05-20T14:34:27.720Z,99857.66
2023-05-20T14:36:00.045Z,99864.41
2023-05-20T14:37:32.250Z,99859.94
2023-05-20T14:39:04.460Z,99863.03
2023-05-20T14:40:37.211Z,99862.66
2023-05-20T14:42:09.503Z,99859.75
2023-05-20T14:43:44.489Z,99853.63
2023-05-20T14:45:17.049Z,99851.53
2023-05-20T14:46:49.262Z,99847.00
2023-05-20T14:48:21.538Z,99844.34
2023-05-20T14:49:53.793Z,99840.97
2023-05-20T14:51:26.061Z,99838.84
2023-05-20T14:52:58.232Z,99837.69
2023-05-20T14:54:30.432Z,99829.22
2023-05-20T14:56:02.519Z,99825.97
2023-05-20T14:57:37.418Z,99835.69
2023-05-20T14:59:10.136Z,99824.28
2023-05-20T15:00:42.863Z,99827.03
2023-05-20T15:02:16.488Z,99828.91
2023-05-20T15:03:48.782Z,99824.59
2023-05-20T15:05:21.122Z,99820.25
2023-05-20T15:06:54.025Z,99827.22
2023-05-20T15:08:26.229Z,99818.56
2023-05-20T15:09:58.383Z,99825.78
2023-05-20T15:11:30.566Z,99813.00
2023-05-20T15:13:02.834Z,99816.41
2023-05-20T15:14:35.075Z,99817.66
2023-05-20T15:16:08.144Z,99814.81
2023-05-20T15:17:40.391Z,99822.19
2023-05-20T15:19:15.499Z,99820.81
2023-05-20T15:20:47.713Z,99815.63
2023-05-20T15:22:19.871Z,99818.38
2023-05-20T15:23:52.054Z,99808.88
2023-05-20T15:25:24.352Z,99814.84
2023-05-20T15:26:56.595Z,99809.13
2023-05-20T15:28:31.482Z,99809.13
2023-05-20T15:30:03.825Z,99817.06
2023-05-20T15:31:36.044Z,99806.78
2023-05-20T15:33:08.308Z,99821.59
2023-05-20T15:34:40.565Z,99830.25
2023-05-20T15:36:12.721Z,99828.47
2023-05-20T15:37:44.895Z,99827.63
2023-05-20T15:39:17.134Z,99829.19
2023-05-20T15:40:50.652Z,99822.00
2023-05-20T15:42:22.854Z,99827.09
2023-05-20T15:43:55.132Z,99824.88
2023-05-20T15:45:28.170Z,99831.13
2023-05-20T15:47:00.337Z,99829.44
2023-05-20T15:48:34.201Z,99835.06
2023-05-20T15:50:08.878Z,99834.97
2023-05-20T15:51:44.510Z,99835.16
2023-05-20T15:53:24.287Z,99837.94
2023-05-20T15:54:57.105Z,99833.69
2023-05-20T15:56:29.897Z,99837.78
2023-05-20T15:58:02.448Z,99830.94
2023-05-20T15:59:34.580Z,99834.56
2023-05-20T16:01:07.280Z,99826.00
2023-05-20T16:02:40.628Z,99827.56
2023-05-20T16:04:13.103Z,99824.59
2023-05-20T16:05:45.458Z,99830.09
2023-05-20T16:07:17.638Z,99824.19
2023-05-20T16:08:49.730Z,99821.88
2023-05-20T16:10:22.994Z,99828.22
2023-05-20T16:11:56.942Z,99820.84
2023-05-20T16:13:29.737Z,99820.53
2023-05-20T16:15:01.978Z,99822.94
2023-05-20T16:16:36.061Z,99819.03
2023-05-20T16:18:08.708Z,99812.72
2023-05-20T16:19:43.136Z,99813.22
2023-05-20T16:21:15.404Z,99815.34
2023-05-20T16:22:47.691Z,99808.59
2023-05-20T16:24:19.819Z,99815.78
2023-05-20T16:25:52.240Z,99821.22
2023-05-20T16:27:24.363Z,99822.53
2023-05-20T16:28:56.438Z,99820.16
2023-05-20T16:30:28.548Z,99821.22
2023-05-20T16:32:01.150Z,99826.97
2023-05-20T16:33:33.302Z,99826.97
2023-05-20T16:35:06.447Z,99839.81
2023-05-20T16:36:38.429Z,99862.88
2023-05-20T16:38:10.849Z,99901.59
2023-05-20T16:39:43.015Z,99937.81
2023-05-20T16:41:16.286Z,99951.34
2023-05-20T16:42:48.700Z,99960.34
2023-05-20T16:44:21.103Z,99956.56
2023-05-20T16:45:53.875Z,99965.19
2023-05-20T16:47:26.090Z,99956.63
2023-05-20T16:48:58.325Z,99966.75
2023-05-20T16:50:30.491Z,99969.38
2023-05-20T16:52:02.778Z,99969.44
2023-05-20T16:53:34.987Z,99963.66
2023-05-20T16:55:08.873Z,99992.66
2023-05-20T16:56:41.058Z,99985.56
2023-05-20T16:58:13.241Z,99967.69
2023-05-20T16:59:46.530Z,99963.34
2023-05-20T17:01:18.761Z,99974.72
2023-05-20T17:02:53.771Z,99968.56
2023-05-20T17:04:26.206Z,99968.06
2023-05-20T17:05:58.772Z,99966.78
2023-05-20T17:07:31.059Z,99957.53
2023-05-20T17:09:04.921Z,99956.97
2023-05-20T17:10:37.072Z,99960.66
2023-05-20T17:12:09.230Z,99952.13
2023-05-20T17:13:42.125Z,99948.78
2023-05-20T17:15:14.391Z,99942.94
2023-05-20T17:16:46.710Z,99939.31
2023-05-20T17:18:18.929Z,99936.91
2023-05-20T17:19:51.308Z,99927.41
2023-05-20T17:21:23.529Z,99926.50
2023-05-20T17:24:28.518Z,99923.50
2023-05-20T17:26:00.732Z,99916.56
2023-05-20T17:27:33.761Z,99916.81
2023-05-20T17:29:05.923Z,99921.22
2023-05-20T17:30:38.109Z,99911.75
2023-05-20T17:32:10.359Z,99913.44
2023-05-20T17:33:42.693Z,99916.19
2023-05-20T17:35:15.087Z,99910.19
2023-05-20T17:36:47.406Z,99905.06
2023-05-20T17:38:19.685Z,99905.22
2023-05-20T17:39:51.927Z,99909.72
2023-05-20T17:41:24.099Z,99904.66
2023-05-20T17:42:56.431Z,99906.13
2023-05-20T17:44:28.693Z,99900.88
2023-05-20T17:46:01.073Z,99898.41
2023-05-20T17:47:33.387Z,99893.31
2023-05-20T17:49:05.602Z,99893.47
2023-05-20T17:50:37.923Z,99892.69
2023-05-20T17:52:10.018Z,99890.31
2023-05-20T17:53:42.240Z,99897.28
2023-05-20T17:55:14.954Z,99896.50
2023-05-20T17:56:48.224Z,99891.31
2023-05-20T17:59:52.901Z,99898.59
2023-05-20T18:01:25.203Z,99891.00
2023-05-20T18:03:00.719Z,99891.91
2023-05-20T18:04:33.459Z,99894.53
2023-05-20T18:06:06.022Z,99892.91
2023-05-20T18:07:38.212Z,99890.34
2023-05-20T18:09:10.596Z,99890.28
2023-05-20T18:10:42.799Z,99892.16
2023-05-20T18:12:14.975Z,99890.53
2023-05-20T18:13:47.200Z,99890.75
2023-05-20T18:15:19.490Z,99890.94
2023-05-20T18:16:51.661Z,99891.09
2023-05-20T18:18:23.934Z,99900.78
2023-05-20T18:19:56.130Z,99898.25
2023-05-20T18:21:28.361Z,99900.00
2023-05-20T18:23:00.668Z,99902.69